Time;durP1;ratioP1;P1;durP2;ratioP2;P2;SDS_P1;SDS_P2;PMS_P1;PMS_P2;Temp;Humidity;BMP_temperature;BMP_pressure;BME280_temperature;BME280_humidity;BME280_pressure;Samples;Min_cycle;Max_cycle;Signal;HPM_P1;HPM_P2
2024/02/14 00:00:28;;;;;;;28.70;13.93;;;;;;;5.61;100.00;100968.47;5025971;28;20032;-77
2024/02/14 00:02:53;;;;;;;25.83;15.20;;;;;;;5.53;100.00;100945.25;5009805;28;20034;-78
2024/02/14 00:05:18;;;;;;;26.73;14.70;;;;;;;5.42;100.00;100938.16;5006564;28;20030;-76
2024/02/14 00:07:44;;;;;;;25.93;14.60;;;;;;;5.33;100.00;100940.72;5004468;28;20038;-77
2024/02/14 00:10:10;;;;;;;29.40;14.73;;;;;;;5.28;100.00;100934.00;5006103;28;20299;-76
2024/02/14 00:12:36;;;;;;;25.20;15.18;;;;;;;5.36;100.00;100943.13;5004966;28;20033;-77
2024/02/14 00:15:07;;;;;;;27.40;15.05;;;;;;;5.31;100.00;100934.72;5021777;28;20080;-77
2024/02/14 00:17:33;;;;;;;26.75;15.68;;;;;;;5.21;100.00;100918.72;5018375;28;20040;-77
2024/02/14 00:20:00;;;;;;;22.98;14.85;;;;;;;5.27;100.00;100936.78;5008448;28;20022;-77
2024/02/14 00:22:25;;;;;;;;;;;;;;;5.24;100.00;100921.13;5024570;28;20040;-77
2024/02/14 00:24:50;;;;;;;29.38;14.88;;;;;;;5.09;100.00;100909.97;5006965;28;19924;-77
2024/02/14 00:27:17;;;;;;;36.95;15.43;;;;;;;5.13;100.00;100915.84;5015441;28;20101;-77
2024/02/14 00:29:44;;;;;;;23.27;13.57;;;;;;;5.15;100.00;100920.09;5015780;28;20061;-77
2024/02/14 00:32:11;;;;;;;27.92;13.50;;;;;;;5.05;100.00;100912.00;5022992;28;20031;-77
2024/02/14 00:34:36;;;;;;;27.15;14.85;;;;;;;5.01;100.00;100910.59;5020755;28;20029;-77
2024/02/14 00:37:02;;;;;;;25.80;13.38;;;;;;;5.13;100.00;100918.50;5006122;28;20041;-76
2024/02/14 00:39:27;;;;;;;20.77;12.48;;;;;;;5.19;100.00;100910.91;5005008;28;20481;-77
2024/02/14 00:41:53;;;;;;;23.67;13.00;;;;;;;5.06;100.00;100887.25;5013369;28;20124;-77
2024/02/14 00:44:19;;;;;;;20.87;12.63;;;;;;;4.98;100.00;100880.88;5013787;28;20284;-77
2024/02/14 00:46:44;;;;;;;;;;;;;;;4.97;100.00;100874.75;5013635;28;20299;-76
2024/02/14 00:49:11;;;;;;;24.35;11.60;;;;;;;4.94;100.00;100864.41;5022450;28;20368;-77
2024/02/14 00:51:38;;;;;;;;;;;;;;;4.97;100.00;100874.75;5000278;28;20516;-78
2024/02/14 00:54:04;;;;;;;24.88;11.07;;;;;;;5.09;100.00;100862.34;5018998;28;19939;-77
2024/02/14 00:56:29;;;;;;;15.55;9.95;;;;;;;4.97;100.00;100834.22;5024444;28;20033;-76
2024/02/14 00:58:54;;;;;;;21.50;10.40;;;;;;;4.98;100.00;100835.91;5026114;28;20021;-77
2024/02/14 01:01:20;;;;;;;14.90;9.47;;;;;;;4.79;100.00;100815.38;5025496;28;20280;-77
2024/02/14 01:03:45;;;;;;;21.50;9.75;;;;;;;4.85;100.00;100807.78;5017524;28;20037;-77
2024/02/14 01:06:11;;;;;;;17.58;10.07;;;;;;;5.02;100.00;100827.59;5024224;28;20053;-78
2024/02/14 01:08:36;;;;;;;20.08;9.88;;;;;;;4.98;100.00;100802.34;5016403;28;20056;-77
2024/02/14 01:11:02;;;;;;;18.30;9.13;;;;;;;4.92;100.00;100779.03;5024184;28;20040;-77
2024/02/14 01:13:27;;;;;;;16.17;9.40;;;;;;;5.06;100.00;100791.97;5025693;28;20200;-77
2024/02/14 01:15:52;;;;;;;19.67;8.90;;;;;;;4.97;100.00;100765.44;5025526;28;20292;-78
2024/02/14 01:18:18;;;;;;;15.07;8.07;;;;;;;4.77;100.00;100757.28;5024357;28;20113;-77
2024/02/14 01:20:43;;;;;;;16.05;8.18;;;;;;;4.88;100.00;100769.66;5022707;28;20057;-77
2024/02/14 01:23:09;;;;;;;10.53;6.60;;;;;;;5.02;100.00;100785.25;5002304;28;20397;-77
2024/02/14 01:25:34;;;;;;;10.80;6.57;;;;;;;5.01;100.00;100743.03;5008239;28;20034;-77
2024/02/14 01:28:00;;;;;;;11.30;6.70;;;;;;;5.10;100.00;100744.91;5024728;28;20044;-77
2024/02/14 01:30:26;;;;;;;11.65;6.50;;;;;;;5.04;100.00;100711.88;5013300;28;20343;-77
2024/02/14 01:32:52;;;;;;;12.70;6.35;;;;;;;5.01;100.00;100695.41;5011426;28;20029;-77
2024/02/14 01:35:18;;;;;;;12.10;6.47;;;;;;;4.99;100.00;100677.03;5029302;28;20064;-77
2024/02/14 01:37:45;;;;;;;17.45;6.57;;;;;;;5.01;100.00;100674.22;5013976;28;20057;-77
2024/02/14 01:40:11;;;;;;;10.88;5.30;;;;;;;4.98;100.00;100655.97;5009304;28;20026;-77
2024/02/14 01:42:36;;;;;;;9.82;5.63;;;;;;;5.02;100.00;100645.00;5013697;28;20041;-77
2024/02/14 01:45:03;;;;;;;10.57;5.33;;;;;;;5.01;100.00;100634.53;5016262;28;20040;-77
2024/02/14 01:47:28;;;;;;;15.27;6.68;;;;;;;4.93;100.00;100614.03;5022557;28;20152;-77
2024/02/14 01:49:54;;;;;;;11.73;5.10;;;;;;;4.99;100.00;100610.88;5016247;28;20030;-76
2024/02/14 01:52:21;;;;;;;11.07;4.90;;;;;;;4.95;100.00;100583.00;4991492;28;20033;-76
2024/02/14 01:54:47;;;;;;;8.13;5.03;;;;;;;5.01;100.00;100598.34;5008020;28;20037;-77
2024/02/14 01:57:13;;;;;;;11.80;5.38;;;;;;;4.91;100.00;100556.91;5017575;28;20029;-78
2024/02/14 01:59:39;;;;;;;6.93;4.55;;;;;;;4.93;100.00;100558.47;5019490;28;20025;-76
2024/02/14 02:02:07;;;;;;;14.30;5.13;;;;;;;4.98;100.00;100558.91;5024689;28;20029;-76
2024/02/14 02:04:33;;;;;;;9.23;4.60;;;;;;;4.88;100.00;100536.03;5026436;28;20021;-77
2024/02/14 02:06:58;;;;;;;11.50;4.90;;;;;;;4.99;100.00;100541.25;5007931;28;20026;-76
2024/02/14 02:09:23;;;;;;;9.57;5.28;;;;;;;4.84;100.00;100532.78;5006950;28;20029;-77
2024/02/14 02:11:50;;;;;;;11.90;4.60;;;;;;;4.88;100.00;100547.44;5025739;28;20033;-77
2024/02/14 02:14:16;;;;;;;12.52;4.10;;;;;;;4.81;100.00;100533.06;5026558;28;20515;-77
2024/02/14 02:16:42;;;;;;;10.55;4.03;;;;;;;4.70;100.00;100517.25;5027306;28;20104;-77
2024/02/14 02:19:09;;;;;;;10.02;4.82;;;;;;;4.84;100.00;100543.38;5020394;28;20069;-77
2024/02/14 02:21:38;;;;;;;8.80;3.78;;;;;;;4.91;100.00;100541.06;5024052;28;20026;-77
2024/02/14 02:24:03;;;;;;;9.93;4.45;;;;;;;4.96;100.00;100533.56;5023741;28;20060;-77
2024/02/14 02:26:29;;;;;;;7.68;3.30;;;;;;;4.76;100.00;100509.66;5024654;28;20017;-77
2024/02/14 02:28:54;;;;;;;6.10;4.05;;;;;;;4.88;100.00;100512.22;5026199;28;20029;-77
2024/02/14 02:31:20;;;;;;;9.00;4.03;;;;;;;4.96;100.00;100510.56;5000556;28;20491;-77
2024/02/14 02:33:46;;;;;;;12.45;5.47;;;;;;;4.95;100.00;100510.72;5026849;28;20041;-77
2024/02/14 02:36:11;;;;;;;12.07;4.50;;;;;;;4.95;100.00;100495.69;5026744;28;20029;-77
2024/02/14 02:38:37;;;;;;;6.53;3.33;;;;;;;4.90;100.00;100497.06;5028324;28;20041;-76
2024/02/14 02:41:06;;;;;;;7.70;3.83;;;;;;;5.01;100.00;100511.03;5028025;28;20024;-76
2024/02/14 02:43:32;;;;;;;8.10;3.55;;;;;;;4.79;100.00;100475.00;5027898;28;20477;-77
2024/02/14 02:45:57;;;;;;;7.80;3.42;;;;;;;4.91;100.00;100506.66;5027572;28;20033;-77
2024/02/14 02:48:23;;;;;;;9.40;3.80;;;;;;;4.76;100.00;100495.59;5018812;28;20469;-76
2024/02/14 02:50:49;;;;;;;9.00;4.10;;;;;;;4.70;100.00;100501.41;5020499;28;20033;-76
2024/02/14 02:53:15;;;;;;;;;;;;;;;4.79;100.00;100537.63;5026226;28;20033;-77
2024/02/14 02:55:41;;;;;;;9.13;3.95;;;;;;;4.80;100.00;100549.88;5010249;28;20011;-78
2024/02/14 02:58:06;;;;;;;7.60;4.30;;;;;;;4.76;100.00;100574.94;5026587;28;20065;-78
2024/02/14 03:00:33;;;;;;;7.15;3.30;;;;;;;4.72;100.00;100590.22;5019678;28;20021;-77
2024/02/14 03:02:58;;;;;;;;;;;;;;;4.85;100.00;100621.78;5018508;28;20029;-77
2024/02/14 03:05:24;;;;;;;6.93;4.32;;;;;;;4.61;100.00;100592.91;5009933;28;19909;-77
2024/02/14 03:07:50;;;;;;;9.98;4.38;;;;;;;4.48;100.00;100635.41;5027706;28;20022;-77
2024/02/14 03:10:19;;;;;;;10.27;4.50;;;;;;;4.55;100.00;100685.97;5015313;28;20125;-77
2024/02/14 03:12:48;;;;;;;10.68;3.50;;;;;;;4.62;100.00;100716.25;5009711;28;20083;-77
2024/02/14 03:15:14;;;;;;;8.55;4.95;;;;;;;4.62;100.00;100742.69;5026759;28;20033;-78
2024/02/14 03:17:40;;;;;;;8.18;3.92;;;;;;;4.50;100.00;100733.94;5027521;28;20846;-78
2024/02/14 03:20:10;;;;;;;8.77;4.73;;;;;;;4.53;100.00;100738.97;5026209;28;20022;-78
2024/02/14 03:22:37;;;;;;;5.85;4.43;;;;;;;4.47;100.00;100779.13;5017659;28;20291;-77
2024/02/14 03:25:02;;;;;;;4.80;3.42;;;;;;;4.56;100.00;100786.31;5027711;28;20091;-77
2024/02/14 03:27:27;;;;;;;8.82;4.53;;;;;;;4.52;100.00;100770.81;5027402;28;20084;-77
2024/02/14 03:29:55;;;;;;;9.50;4.97;;;;;;;4.49;100.00;100774.53;5027329;28;20026;-78
2024/02/14 03:32:20;;;;;;;8.85;4.38;;;;;;;4.52;100.00;100794.63;5009284;28;20155;-78
2024/02/14 03:34:45;;;;;;;7.30;3.90;;;;;;;4.53;100.00;100801.59;5027546;28;20121;-78
2024/02/14 03:37:11;;;;;;;12.20;5.40;;;;;;;4.34;100.00;100789.00;5027344;28;20163;-76
2024/02/14 03:39:36;;;;;;;9.97;5.27;;;;;;;4.44;100.00;100829.59;5009825;28;20068;-77
2024/02/14 03:42:07;;;;;;;10.85;5.65;;;;;;;4.34;100.00;100829.47;5008758;28;20030;-78
2024/02/14 03:44:33;;;;;;;11.30;5.15;;;;;;;4.50;100.00;100855.56;5012087;28;20039;-78
2024/02/14 03:46:58;;;;;;;11.10;5.43;;;;;;;4.44;100.00;100840.16;5009549;28;20392;-77
2024/02/14 03:49:25;;;;;;;8.32;4.88;;;;;;;4.34;100.00;100841.88;5025482;28;20033;-77
2024/02/14 03:51:54;;;;;;;11.43;5.90;;;;;;;4.28;100.00;100842.34;5024725;28;20071;-78
2024/02/14 03:54:20;;;;;;;10.43;6.15;;;;;;;4.15;100.00;100838.00;5007303;28;20600;-77
2024/02/14 03:56:45;;;;;;;16.77;7.53;;;;;;;4.24;100.00;100870.81;5012502;28;20025;-78
2024/02/14 03:59:11;;;;;;;9.30;6.13;;;;;;;4.23;100.00;100877.03;5009366;28;20040;-77
2024/02/14 04:01:36;;;;;;;10.73;5.80;;;;;;;4.38;100.00;100896.19;4999142;28;20044;-76
2024/02/14 04:04:01;;;;;;;9.97;6.50;;;;;;;4.31;100.00;100890.53;5026887;28;20030;-77
2024/02/14 04:06:27;;;;;;;12.70;6.77;;;;;;;4.37;100.00;100887.38;5025004;28;20286;-78
2024/02/14 04:08:52;;;;;;;10.68;6.40;;;;;;;4.47;100.00;100897.25;5024675;28;20079;-78
2024/02/14 04:11:18;;;;;;;14.40;7.20;;;;;;;4.48;100.00;100889.22;4996281;28;20136;-78
2024/02/14 04:13:43;;;;;;;12.43;6.40;;;;;;;4.31;100.00;100890.53;5010957;28;20280;-77
2024/02/14 04:16:08;;;;;;;12.23;7.30;;;;;;;4.17;100.00;100896.88;5008709;28;20688;-77
2024/02/14 04:18:34;;;;;;;13.70;7.30;;;;;;;4.41;100.00;100928.50;5004866;28;20061;-77
2024/02/14 04:20:59;;;;;;;17.05;8.15;;;;;;;4.28;100.00;100901.31;5006302;28;20163;-77
2024/02/14 04:23:25;;;;;;;13.43;7.47;;;;;;;4.43;100.00;100928.38;5005568;28;20062;-77
2024/02/14 04:25:51;;;;;;;15.52;8.35;;;;;;;4.22;100.00;100905.28;5007475;28;20292;-77
2024/02/14 04:28:16;;;;;;;16.58;9.20;;;;;;;4.29;100.00;100925.97;5015892;28;20038;-78
2024/02/14 04:30:43;;;;;;;13.90;8.30;;;;;;;4.47;100.00;100934.25;5003302;28;20080;-77
2024/02/14 04:33:09;;;;;;;14.05;8.70;;;;;;;4.37;100.00;100923.56;5012337;28;20048;-78
2024/02/14 04:35:34;;;;;;;;;;;;;;;4.34;100.00;100921.16;5007820;28;20482;-78
2024/02/14 04:37:59;;;;;;;19.75;7.93;;;;;;;4.42;100.00;100924.03;5021428;28;19924;-78
2024/02/14 04:40:25;;;;;;;15.40;8.40;;;;;;;4.54;100.00;100919.59;5023173;28;21438;-78
2024/02/14 04:42:50;;;;;;;18.45;10.55;;;;;;;4.33;100.00;100906.25;5022367;28;20431;-78
2024/02/14 04:45:16;;;;;;;18.42;9.20;;;;;;;4.50;100.00;100921.66;5025647;28;20057;-78
2024/02/14 04:47:42;;;;;;;16.33;9.15;;;;;;;4.50;100.00;100923.47;5025392;28;20460;-78
2024/02/14 04:50:07;;;;;;;;;;;;;;;4.65;100.00;100920.47;5007105;28;20099;-78
2024/02/14 04:52:33;;;;;;;18.67;8.68;;;;;;;4.56;100.00;100922.97;4993851;28;19913;-78
2024/02/14 04:54:58;;;;;;;15.30;7.78;;;;;;;4.62;100.00;100918.06;5001001;28;20033;-77
2024/02/14 04:57:24;;;;;;;18.07;10.07;;;;;;;4.26;100.00;100890.03;5008561;28;20102;-78
2024/02/14 04:59:49;;;;;;;20.08;9.57;;;;;;;4.51;100.00;100912.75;5008956;28;20287;-78
2024/02/14 05:02:14;;;;;;;16.83;9.27;;;;;;;4.50;100.00;100908.44;5026387;28;20041;-78
2024/02/14 05:04:40;;;;;;;15.88;9.05;;;;;;;4.61;100.00;100905.81;5025181;28;20284;-77
2024/02/14 05:07:06;;;;;;;14.98;7.93;;;;;;;4.62;100.00;100907.47;5024847;28;20083;-78
2024/02/14 05:09:32;;;;;;;14.38;8.95;;;;;;;4.48;100.00;100891.84;5008680;28;20041;-77
2024/02/14 05:11:57;;;;;;;18.83;9.43;;;;;;;4.58;100.00;100897.25;5007218;28;20022;-78
2024/02/14 05:14:23;;;;;;;13.95;8.88;;;;;;;4.54;100.00;100891.38;5025239;28;20373;-77
2024/02/14 05:16:49;;;;;;;17.88;8.43;;;;;;;4.56;100.00;100885.97;5026093;28;20416;-78
2024/02/14 05:19:14;;;;;;;14.75;9.68;;;;;;;4.56;100.00;100884.16;5025340;28;20033;-78
2024/02/14 05:21:39;;;;;;;15.70;7.85;;;;;;;4.41;100.00;100878.25;5008718;28;20049;-78
2024/02/14 05:24:06;;;;;;;19.07;9.00;;;;;;;4.58;100.00;100894.63;5026338;28;20335;-78
2024/02/14 05:26:32;;;;;;;14.52;7.60;;;;;;;4.44;100.00;100893.03;5007837;28;20025;-79
2024/02/14 05:28:59;;;;;;;16.63;9.35;;;;;;;4.54;100.00;100894.03;5010151;28;20052;-78
2024/02/14 05:31:24;;;;;;;;;;;;;;;4.67;100.00;100895.72;5002098;28;20034;-79
2024/02/14 05:33:50;;;;;;;15.77;7.57;;;;;;;4.34;100.00;100870.94;5002483;28;19924;-79
2024/02/14 05:36:16;;;;;;;15.35;8.80;;;;;;;4.60;100.00;100890.88;5022644;28;20389;-78
2024/02/14 05:38:43;;;;;;;20.70;9.75;;;;;;;4.35;100.00;100870.81;5001272;28;20041;-78
2024/02/14 05:41:09;;;;;;;19.60;8.50;;;;;;;4.41;100.00;100888.84;5001747;28;20556;-79
2024/02/14 05:43:34;;;;;;;16.33;8.80;;;;;;;4.58;100.00;100890.16;4994578;28;20062;-78
2024/02/14 05:46:00;;;;;;;17.23;9.50;;;;;;;4.47;100.00;100882.22;5017580;28;20030;-78
2024/02/14 05:48:26;;;;;;;17.92;9.63;;;;;;;4.27;100.00;100865.28;5022777;28;20069;-78
2024/02/14 05:50:51;;;;;;;21.77;10.02;;;;;;;4.27;100.00;100867.09;5019245;28;20064;-78
2024/02/14 05:53:16;;;;;;;15.63;9.63;;;;;;;4.20;100.00;100856.97;5006402;28;20033;-77
2024/02/14 05:55:42;;;;;;;14.33;10.27;;;;;;;4.44;100.00;100874.53;5008503;28;20033;-78
2024/02/14 05:58:07;;;;;;;22.73;11.20;;;;;;;4.20;100.00;100853.50;5025414;28;20044;-78
2024/02/14 06:00:32;;;;;;;19.63;10.33;;;;;;;4.29;100.00;100873.94;5008975;28;20291;-78
2024/02/14 06:02:58;;;;;;;18.45;9.93;;;;;;;4.06;100.00;100851.94;5020236;28;20085;-77
2024/02/14 06:05:23;;;;;;;21.23;9.67;;;;;;;4.38;100.00;100872.41;5008561;28;20045;-78
2024/02/14 06:07:50;;;;;;;19.42;10.77;;;;;;;4.12;100.00;100850.59;5017665;28;20288;-77
2024/02/14 06:10:16;;;;;;;20.88;10.50;;;;;;;3.97;100.00;100842.91;4995834;28;20432;-77
2024/02/14 06:12:43;;;;;;;20.63;10.15;;;;;;;4.32;100.00;100868.41;5029122;28;20017;-77
2024/02/14 06:15:08;;;;;;;18.25;10.15;;;;;;;4.21;100.00;100853.41;5003901;28;20449;-78
2024/02/14 06:17:33;;;;;;;21.52;11.23;;;;;;;4.11;100.00;100838.38;5004957;28;20033;-77
2024/02/14 06:20:00;;;;;;;19.08;11.32;;;;;;;4.10;100.00;100849.91;5023899;28;20098;-77
2024/02/14 06:22:25;;;;;;;21.98;12.18;;;;;;;4.31;100.00;100852.66;5030807;28;20037;-77
2024/02/14 06:24:51;;;;;;;21.75;12.02;;;;;;;4.30;100.00;100849.19;5031368;28;20021;-77
2024/02/14 06:27:16;;;;;;;27.45;12.50;;;;;;;4.18;100.00;100836.91;5013078;28;20076;-77
2024/02/14 06:29:42;;;;;;;22.00;10.55;;;;;;;4.49;100.00;100864.44;5013687;28;20034;-77
2024/02/14 06:32:08;;;;;;;21.52;11.40;;;;;;;4.32;100.00;100843.78;5015367;28;20041;-77
2024/02/14 06:34:33;;;;;;;18.35;9.48;;;;;;;4.53;100.00;100852.66;5017656;28;20044;-78
2024/02/14 06:36:59;;;;;;;19.53;10.50;;;;;;;4.62;100.00;100849.31;5007536;28;20022;-77
2024/02/14 06:39:24;;;;;;;22.10;11.20;;;;;;;4.39;100.00;100829.13;5004955;28;20073;-77
2024/02/14 06:41:49;;;;;;;23.67;12.50;;;;;;;4.15;100.00;100832.72;5023728;28;20472;-76
2024/02/14 06:44:15;;;;;;;25.50;11.25;;;;;;;4.07;100.00;100835.09;5025057;28;20300;-78
2024/02/14 06:46:46;;;;;;;20.48;10.25;;;;;;;4.17;100.00;100844.03;5029409;28;20028;-78
2024/02/14 06:49:11;;;;;;;21.83;11.43;;;;;;;4.38;100.00;100856.53;5011908;28;20029;-77
2024/02/14 06:51:37;;;;;;;21.08;11.48;;;;;;;4.40;100.00;100865.16;4998867;28;20033;-78
2024/02/14 06:54:02;;;;;;;28.98;13.30;;;;;;;4.31;100.00;100856.16;5023343;28;20037;-78
2024/02/14 06:56:30;;;;;;;29.17;12.23;;;;;;;4.26;100.00;100852.19;5011605;28;20034;-77
2024/02/14 06:58:59;;;;;;;22.83;12.23;;;;;;;4.54;100.00;100862.31;5002984;28;20122;-77
2024/02/14 07:01:26;;;;;;;20.45;11.38;;;;;;;4.36;100.00;100838.13;5013459;23;20038;-77
2024/02/14 07:03:58;;;;;;;24.75;12.30;;;;;;;4.21;100.00;100831.38;5021591;28;20037;-78
2024/02/14 07:06:23;;;;;;;23.83;12.38;;;;;;;4.33;100.00;100842.81;5007884;28;20044;-78
2024/02/14 07:08:49;;;;;;;23.73;13.05;;;;;;;4.32;100.00;100846.44;5023464;28;20036;-77
2024/02/14 07:11:18;;;;;;;28.13;14.33;;;;;;;4.30;100.00;100837.78;5007464;28;20193;-78
2024/02/14 07:13:43;;;;;;;24.02;12.90;;;;;;;4.31;100.00;100844.72;5021915;28;20296;-77
2024/02/14 07:16:09;;;;;;;22.83;12.13;;;;;;;4.40;100.00;100842.22;5012031;28;20509;-77
2024/02/14 07:18:37;;;;;;;24.15;12.98;;;;;;;4.26;100.00;100825.75;5009242;28;20077;-77
2024/02/14 07:21:05;;;;;;;25.92;12.90;;;;;;;4.43;100.00;100846.44;5008473;28;20022;-77
2024/02/14 07:23:35;;;;;;;28.10;13.20;;;;;;;4.36;100.00;100824.09;5011240;28;20096;-77
2024/02/14 07:26:01;;;;;;;22.33;12.27;;;;;;;4.50;100.00;100818.56;5010201;28;20464;-77
2024/02/14 07:28:26;;;;;;;22.10;11.68;;;;;;;4.77;100.00;100841.09;4989743;28;20033;-78
2024/02/14 07:30:52;;;;;;;25.77;13.30;;;;;;;4.79;100.00;100831.25;5009100;28;20034;-78
2024/02/14 07:33:17;;;;;;;25.30;12.67;;;;;;;4.57;100.00;100821.56;5007038;28;20041;-78
2024/02/14 07:35:42;;;;;;;24.97;13.20;;;;;;;4.51;100.00;100825.50;5009089;28;20783;-76
2024/02/14 07:38:08;;;;;;;25.45;13.02;;;;;;;4.67;100.00;100835.72;5011662;28;20033;-78
2024/02/14 07:40:33;;;;;;;23.15;13.93;;;;;;;4.56;100.00;100818.03;5008328;28;20033;-79
2024/02/14 07:42:59;;;;;;;22.15;12.95;;;;;;;4.69;100.00;100823.22;5013798;28;20140;-77
2024/02/14 07:45:25;;;;;;;26.65;13.57;;;;;;;4.69;100.00;100825.03;4992787;28;20052;-77
2024/02/14 07:47:54;;;;;;;21.20;11.77;;;;;;;4.73;100.00;100829.09;4998464;28;20100;-76
2024/02/14 07:50:21;;;;;;;24.08;12.90;;;;;;;4.47;100.00;100807.34;4982288;28;20154;-78
2024/02/14 07:52:47;;;;;;;27.05;13.18;;;;;;;4.46;100.00;100811.81;4991918;28;20104;-78
2024/02/14 07:59:52;;;;;;;;;;;;;;;;;;;;;
2024/02/14 08:02:46;;;;;;;22.45;12.32;;;;;;;4.63;100.00;100806.00;4962897;28;20036;-77
2024/02/14 08:06:06;;;;;;;22.95;12.80;;;;;;;4.64;100.00;100828.03;5013066;28;20033;-77
2024/02/14 08:08:37;;;;;;;26.17;12.98;;;;;;;4.58;100.00;100813.47;4947110;28;20043;-77
2024/02/14 08:11:05;;;;;;;24.83;13.00;;;;;;;4.61;100.00;100820.31;4917837;29;20072;-77
2024/02/14 08:13:31;;;;;;;20.90;12.30;;;;;;;4.31;100.00;100802.44;4971836;28;20061;-78
2024/02/14 08:15:58;;;;;;;22.90;12.18;;;;;;;4.70;100.00;100827.53;5014018;28;20044;-78
2024/02/14 08:18:24;;;;;;;27.98;11.80;;;;;;;4.61;100.00;100823.84;4991871;28;20095;-78
2024/02/14 08:20:49;;;;;;;;;;;;;;;4.52;100.00;100826.34;5010573;28;20033;-77
2024/02/14 08:23:21;;;;;;;20.92;11.90;;;;;;;4.51;100.00;100825.50;5006708;28;19917;-77
2024/02/14 08:25:46;;;;;;;30.13;12.98;;;;;;;4.74;100.00;100842.19;5007132;28;20025;-76
2024/02/14 08:28:17;;;;;;;26.65;13.85;;;;;;;4.84;100.00;100829.06;4983685;28;20022;-77
2024/02/14 08:30:43;;;;;;;31.35;13.90;;;;;;;4.64;100.00;100822.75;4991569;28;20041;-78
2024/02/14 08:33:10;;;;;;;24.05;13.25;;;;;;;4.54;100.00;100809.41;5005236;28;20045;-77
2024/02/14 08:35:36;;;;;;;26.65;14.20;;;;;;;4.62;100.00;100828.16;5005316;28;20038;-77
2024/02/14 08:38:01;;;;;;;23.02;13.52;;;;;;;5.02;100.00;100848.75;5014239;28;20041;-77
2024/02/14 08:40:27;;;;;;;28.00;12.43;;;;;;;4.88;100.00;100838.44;4994799;28;20500;-78
2024/02/14 08:42:55;;;;;;;31.27;13.80;;;;;;;4.88;100.00;100827.03;5004611;28;20030;-77
2024/02/14 08:45:21;;;;;;;27.23;14.18;;;;;;;4.85;100.00;100831.59;5014505;28;20532;-77
2024/02/14 08:47:46;;;;;;;24.67;12.43;;;;;;;4.86;100.00;100829.78;5017529;28;20040;-78
2024/02/14 08:50:12;;;;;;;24.15;13.30;;;;;;;5.04;100.00;100832.75;5003345;28;20034;-77
2024/02/14 08:52:40;;;;;;;27.48;14.00;;;;;;;5.09;100.00;100830.56;5005988;28;20077;-78
2024/02/14 08:55:10;;;;;;;24.15;13.05;;;;;;;5.23;100.00;100832.09;5018958;28;20033;-77
2024/02/14 08:57:36;;;;;;;29.08;13.00;;;;;;;4.98;100.00;100822.66;5007160;28;20136;-77
2024/02/14 09:00:03;;;;;;;22.52;12.88;;;;;;;4.81;100.00;100827.50;5003780;28;20025;-76
2024/02/14 09:02:28;;;;;;;26.55;13.48;;;;;;;4.86;100.00;100829.78;5004613;28;20037;-77
2024/02/14 09:04:54;;;;;;;24.90;13.10;;;;;;;5.17;100.00;100849.31;4993841;28;20092;-76
2024/02/14 09:07:19;;;;;;;25.40;13.33;;;;;;;5.04;100.00;100833.59;5020173;28;20041;-78
2024/02/14 09:09:46;;;;;;;25.33;12.30;;;;;;;5.04;100.00;100838.06;5027120;28;20787;-76
2024/02/14 09:12:11;;;;;;;28.75;13.30;;;;;;;5.04;100.00;100841.53;5021155;28;20041;-77
2024/02/14 09:14:36;;;;;;;22.90;11.90;;;;;;;4.96;100.00;100838.66;4993515;28;20021;-77
2024/02/14 09:17:02;;;;;;;26.45;11.82;;;;;;;5.25;100.00;100854.00;5007099;28;20292;-78
2024/02/14 09:19:27;;;;;;;26.73;14.07;;;;;;;5.32;100.00;100841.09;5001122;28;20072;-77
2024/02/14 09:21:52;;;;;;;30.30;13.70;;;;;;;5.33;100.00;100827.72;5021850;28;20307;-77
2024/02/14 09:24:18;;;;;;;22.38;12.90;;;;;;;5.44;100.00;100840.91;5018507;28;20034;-77
2024/02/14 09:26:43;;;;;;;30.40;12.38;;;;;;;5.58;100.00;100839.78;5019678;28;20079;-77
2024/02/14 09:29:10;;;;;;;23.07;12.20;;;;;;;5.61;100.00;100836.03;4996341;28;20771;-77
2024/02/14 09:31:36;;;;;;;33.60;14.35;;;;;;;5.49;100.00;100837.88;5002503;28;20035;-77
2024/02/14 09:34:02;;;;;;;25.65;13.35;;;;;;;5.64;100.00;100839.28;4996398;28;20422;-76
2024/02/14 09:36:28;;;;;;;26.55;13.10;;;;;;;5.72;100.00;100833.31;5010144;28;20038;-77
2024/02/14 09:38:55;;;;;;;27.67;13.90;;;;;;;5.61;100.00;100828.09;5020498;28;20037;-76
2024/02/14 09:41:36;;;;;;;;;;;;;;;5.59;100.00;100827.38;4993223;28;20053;-76
2024/02/14 09:44:03;;;;;;;26.30;12.32;;;;;;;5.59;100.00;100822.91;5016016;28;19932;-77
2024/02/14 09:46:30;;;;;;;23.05;12.18;;;;;;;5.89;100.00;100829.25;5002062;28;20463;-76
2024/02/14 09:48:58;;;;;;;23.80;12.80;;;;;;;5.77;100.00;100827.63;5000204;28;20550;-77
2024/02/14 09:51:24;;;;;;;21.33;11.63;;;;;;;5.69;100.00;100817.69;5021978;28;20083;-77
2024/02/14 09:53:50;;;;;;;22.15;11.48;;;;;;;5.86;100.00;100829.50;5021681;28;20021;-76
2024/02/14 09:56:18;;;;;;;19.60;11.20;;;;;;;5.98;100.00;100839.09;4995983;28;20053;-77
2024/02/14 09:58:49;;;;;;;21.90;11.93;;;;;;;6.10;100.00;100831.91;5025759;28;20037;-77
2024/02/14 10:01:15;;;;;;;29.30;13.63;;;;;;;6.05;100.00;100823.53;5008468;28;20534;-76
2024/02/14 10:03:40;;;;;;;20.73;11.18;;;;;;;5.96;100.00;100821.66;4994514;28;20042;-77
2024/02/14 10:06:06;;;;;;;19.30;12.90;;;;;;;5.98;100.00;100825.00;5004964;28;20539;-77
2024/02/14 10:08:31;;;;;;;27.03;13.47;;;;;;;5.98;100.00;100819.72;5016113;28;20652;-77
2024/02/14 10:10:58;;;;;;;20.17;11.15;;;;;;;6.16;100.00;100834.03;5005493;28;20276;-77
2024/02/14 10:13:26;;;;;;;27.48;14.13;;;;;;;6.22;100.00;100830.84;5009005;28;20121;-76
2024/02/14 10:15:52;;;;;;;21.80;12.77;;;;;;;6.13;100.00;100826.34;5018561;28;20033;-77
2024/02/14 10:18:18;;;;;;;21.65;12.20;;;;;;;6.33;100.00;100841.38;4993660;28;20104;-76
2024/02/14 10:20:56;;;;;;;24.63;13.37;;;;;;;6.41;100.00;100837.22;4996582;28;20121;-77
2024/02/14 10:23:22;;;;;;;26.98;13.13;;;;;;;6.19;100.00;100817.88;4988263;28;20287;-77
2024/02/14 10:25:53;;;;;;;21.17;11.23;;;;;;;6.38;100.00;100833.03;4994488;28;20713;-76
2024/02/14 10:28:21;;;;;;;20.77;11.80;;;;;;;6.26;100.00;100836.75;5008304;28;20037;-77
2024/02/14 10:30:47;;;;;;;20.35;12.10;;;;;;;6.41;100.00;100839.88;5028363;28;20442;-76
2024/02/14 10:33:12;;;;;;;23.83;11.80;;;;;;;6.34;100.00;100837.75;5029847;28;20124;-76
2024/02/14 10:35:38;;;;;;;21.90;13.53;;;;;;;6.32;100.00;100839.72;5014048;28;20072;-76
2024/02/14 10:38:06;;;;;;;23.38;11.32;;;;;;;6.46;100.00;100851.78;5016803;28;20280;-76
2024/02/14 10:40:33;;;;;;;18.67;11.20;;;;;;;6.55;100.00;100850.09;5003359;28;20017;-76
2024/02/14 10:42:59;;;;;;;20.73;12.02;;;;;;;6.72;100.00;100846.00;5021164;28;20037;-76
2024/02/14 10:45:26;;;;;;;21.48;12.10;;;;;;;6.52;100.00;100829.16;5004377;28;20034;-77
2024/02/14 10:47:53;;;;;;;24.92;13.52;;;;;;;6.66;100.00;100839.41;5021179;28;20072;-77
2024/02/14 10:50:21;;;;;;;24.63;14.18;;;;;;;6.75;100.00;100841.25;5018931;28;20034;-76
2024/02/14 10:52:48;;;;;;;19.58;11.93;;;;;;;6.75;100.00;100832.47;4997082;28;20180;-76
2024/02/14 10:55:16;;;;;;;25.15;13.90;;;;;;;6.84;100.00;100836.13;5018361;28;20048;-77
2024/02/14 10:57:43;;;;;;;23.30;13.27;;;;;;;7.01;100.00;100840.75;4999555;28;20029;-76
2024/02/14 11:00:10;;;;;;;23.25;13.45;;;;;;;7.03;100.00;100837.97;5008157;28;20091;-76
2024/02/14 11:02:39;;;;;;;29.63;14.48;;;;;;;7.07;100.00;100836.69;5012129;28;20091;-76
2024/02/14 11:05:06;;;;;;;21.45;12.77;;;;;;;7.08;100.00;100839.22;5014995;28;20393;-75
2024/02/14 11:07:32;;;;;;;20.90;12.05;;;;;;;6.91;100.00;100832.78;5025639;28;20026;-76
2024/02/14 11:10:07;;;;;;;25.40;14.10;;;;;;;7.01;100.00;100846.06;5026534;28;20171;-77
2024/02/14 11:12:39;;;;;;;21.87;13.47;;;;;;;7.23;100.00;100850.28;5019376;28;20148;-77
2024/02/14 11:15:21;;;;;;;22.50;12.45;;;;;;;7.30;100.00;100848.75;5012834;28;20034;-77
2024/02/14 11:17:52;;;;;;;18.40;12.15;;;;;;;7.47;100.00;100846.38;5011526;28;20033;-77